Time;durP1;ratioP1;P1;durP2;ratioP2;P2;SDS_P1;SDS_P2;PMS_P1;PMS_P2;Temp;Humidity;BMP_temperature;BMP_pressure;BME280_temperature;BME280_humidity;BME280_pressure;Samples;Min_cycle;Max_cycle;Signal;HPM_P1;HPM_P2
2020/12/04 00:00:21;;;;;;;23.83;11.47;;;2.20;86.90;;;;;;5033854;28;20045;-74
2020/12/04 00:02:47;;;;;;;25.80;12.57;;;2.20;86.80;;;;;;5032920;28;20103;-74
2020/12/04 00:05:13;;;;;;;25.17;12.27;;;2.20;86.70;;;;;;5033654;28;20052;-74
2020/12/04 00:07:38;;;;;;;27.73;13.63;;;2.20;86.60;;;;;;5033453;28;20523;-74
2020/12/04 00:10:05;;;;;;;26.53;11.80;;;2.20;86.70;;;;;;5034089;28;20128;-74
2020/12/04 00:12:31;;;;;;;25.17;12.70;;;2.20;86.60;;;;;;5032270;28;20034;-75
2020/12/04 00:14:57;;;;;;;27.77;12.93;;;2.20;86.50;;;;;;5033573;28;20040;-74
2020/12/04 00:17:22;;;;;;;26.23;12.27;;;2.20;86.50;;;;;;5032842;28;20425;-74
2020/12/04 00:19:48;;;;;;;26.27;13.03;;;2.20;86.50;;;;;;5033985;28;20048;-74
2020/12/04 00:22:14;;;;;;;23.27;11.33;;;2.20;86.40;;;;;;5033707;28;20068;-74
2020/12/04 00:24:39;;;;;;;26.23;13.57;;;2.20;86.30;;;;;;5032841;28;20625;-74
2020/12/04 00:27:05;;;;;;;26.90;13.23;;;2.20;86.20;;;;;;5032311;28;20045;-74
2020/12/04 00:29:31;;;;;;;24.47;11.30;;;2.20;86.20;;;;;;5016348;28;20064;-70
2020/12/04 00:31:57;;;;;;;26.03;13.20;;;2.20;86.20;;;;;;5031327;28;20114;-69
2020/12/04 00:34:24;;;;;;;23.50;11.27;;;2.20;86.20;;;;;;5033502;28;20037;-70
2020/12/04 00:36:50;;;;;;;27.00;12.63;;;2.20;86.10;;;;;;5031931;28;20061;-70
2020/12/04 00:39:16;;;;;;;25.20;12.50;;;2.20;86.00;;;;;;5032855;28;20400;-70
2020/12/04 00:41:43;;;;;;;26.47;13.03;;;2.20;85.80;;;;;;5032405;28;20045;-69
2020/12/04 00:44:09;;;;;;;26.77;13.17;;;2.20;85.70;;;;;;5031330;28;20048;-69
2020/12/04 00:46:35;;;;;;;24.10;11.20;;;2.20;85.70;;;;;;5031652;28;20389;-70
2020/12/04 00:49:01;;;;;;;26.87;12.90;;;2.10;85.50;;;;;;5015352;28;20048;-69
2020/12/04 00:51:27;;;;;;;26.47;12.93;;;2.10;85.50;;;;;;5031386;28;20029;-69
2020/12/04 00:53:54;;;;;;;28.37;12.27;;;2.10;85.60;;;;;;5031242;28;20049;-69
2020/12/04 00:56:28;;;;;;;19.70;8.87;;;2.00;85.60;;;;;;5031133;28;20116;-69
2020/12/04 00:58:54;;;;;;;19.87;9.90;;;2.00;85.50;;;;;;5033752;28;20041;-70
2020/12/04 01:01:20;;;;;;;26.47;13.00;;;2.00;85.30;;;;;;5032879;28;20038;-69
2020/12/04 01:03:46;;;;;;;26.23;12.00;;;1.90;85.20;;;;;;5032727;28;20088;-69
2020/12/04 01:06:12;;;;;;;27.07;13.63;;;1.90;85.20;;;;;;5033418;28;20034;-70
2020/12/04 01:08:38;;;;;;;25.43;11.63;;;1.90;85.30;;;;;;5033007;28;20037;-69
2020/12/04 01:11:04;;;;;;;25.13;12.07;;;1.90;85.40;;;;;;5032091;28;20041;-69
2020/12/04 01:13:30;;;;;;;27.40;13.30;;;1.80;85.30;;;;;;5032088;28;20033;-70
2020/12/04 01:15:56;;;;;;;22.87;10.97;;;1.80;85.30;;;;;;5031753;28;20124;-70
2020/12/04 01:18:21;;;;;;;27.30;12.43;;;1.80;85.30;;;;;;5032021;28;20026;-70
2020/12/04 01:20:47;;;;;;;25.80;12.53;;;1.80;85.30;;;;;;5032906;28;20068;-70
2020/12/04 01:23:13;;;;;;;26.27;12.93;;;1.70;85.40;;;;;;5032466;28;20030;-70
2020/12/04 01:25:38;;;;;;;25.97;12.17;;;1.80;85.50;;;;;;5032239;28;20449;-71
2020/12/04 01:28:04;;;;;;;27.77;14.07;;;1.70;85.40;;;;;;5032546;28;20044;-70
2020/12/04 01:30:30;;;;;;;24.37;11.50;;;1.70;85.40;;;;;;5031137;28;20042;-70
2020/12/04 01:32:55;;;;;;;27.27;13.90;;;1.70;85.40;;;;;;5031523;28;20037;-70
2020/12/04 01:35:21;;;;;;;26.23;12.57;;;1.70;85.30;;;;;;5031180;28;20438;-68
2020/12/04 01:37:47;;;;;;;29.80;13.53;;;1.60;85.30;;;;;;5032494;28;20053;-69
2020/12/04 01:40:12;;;;;;;24.43;10.00;;;1.60;85.20;;;;;;5032089;28;20120;-70
2020/12/04 01:42:38;;;;;;;25.43;10.90;;;1.60;85.10;;;;;;5031807;28;20037;-70
2020/12/04 01:45:04;;;;;;;28.90;14.07;;;1.50;85.10;;;;;;5031884;28;20129;-68
2020/12/04 01:47:30;;;;;;;28.10;13.17;;;1.50;85.10;;;;;;5030947;28;20033;-69
2020/12/04 01:49:56;;;;;;;26.07;12.30;;;1.40;85.10;;;;;;5032397;28;20406;-69
2020/12/04 01:52:25;;;;;;;26.47;13.07;;;1.40;85.10;;;;;;5031138;28;20045;-70
2020/12/04 01:54:52;;;;;;;25.10;10.50;;;1.40;85.10;;;;;;5032102;28;20070;-70
2020/12/04 01:57:21;;;;;;;27.90;12.90;;;1.30;85.00;;;;;;5031902;28;20383;-69
2020/12/04 01:59:47;;;;;;;26.63;12.57;;;1.30;85.10;;;;;;5032127;28;20045;-70
2020/12/04 02:02:21;;;;;;;26.73;13.00;;;1.20;85.00;;;;;;5031289;28;20045;-70
2020/12/04 02:04:48;;;;;;;28.00;13.67;;;1.20;85.00;;;;;;5032519;28;20045;-69
2020/12/04 02:07:25;;;;;;;24.67;11.27;;;1.10;85.00;;;;;;5030503;28;20041;-69
2020/12/04 02:09:54;;;;;;;27.83;13.20;;;1.10;85.60;;;;;;5032169;28;20030;-70
2020/12/04 02:12:23;;;;;;;29.50;12.97;;;1.10;85.20;;;;;;5031772;28;20044;-70
2020/12/04 02:14:49;;;;;;;28.27;13.43;;;1.10;85.20;;;;;;5031893;28;20037;-69
2020/12/04 02:17:15;;;;;;;27.10;12.80;;;1.00;85.20;;;;;;5032307;28;20044;-70
2020/12/04 02:19:43;;;;;;;25.63;10.97;;;1.10;85.20;;;;;;5031777;28;20052;-69
2020/12/04 02:22:11;;;;;;;21.83;8.57;;;1.00;85.10;;;;;;5030264;28;20089;-70
2020/12/04 02:24:41;;;;;;;26.27;12.23;;;1.00;85.20;;;;;;5031559;28;20033;-69
2020/12/04 02:27:09;;;;;;;28.30;13.82;;;1.00;85.10;;;;;;5031899;28;20041;-70
2020/12/04 02:29:38;;;;;;;28.43;13.47;;;1.00;85.00;;;;;;5031592;28;20039;-70
2020/12/04 02:32:12;;;;;;;20.40;8.77;;;1.00;85.00;;;;;;5030453;28;20583;-68
2020/12/04 02:34:38;;;;;;;25.23;10.97;;;0.90;84.90;;;;;;5030127;28;20091;-70
2020/12/04 02:37:05;;;;;;;29.20;12.87;;;0.90;84.80;;;;;;5030963;28;20112;-69
2020/12/04 02:39:31;;;;;;;22.27;10.07;;;0.90;84.80;;;;;;5031333;28;20045;-70
2020/12/04 02:41:57;;;;;;;24.67;10.87;;;0.90;84.80;;;;;;5030224;28;20079;-70
2020/12/04 02:44:23;;;;;;;27.10;13.37;;;0.90;84.80;;;;;;5031047;28;20041;-69
2020/12/04 02:46:48;;;;;;;28.93;13.80;;;0.80;84.70;;;;;;5031180;28;20041;-68
2020/12/04 02:49:14;;;;;;;23.03;10.47;;;0.80;84.70;;;;;;5030735;28;20042;-70
2020/12/04 02:51:44;;;;;;;28.07;12.53;;;0.80;84.80;;;;;;5030535;28;20049;-69
2020/12/04 02:54:10;;;;;;;29.48;13.10;;;0.80;84.70;;;;;;5030605;28;20042;-69
2020/12/04 02:56:36;;;;;;;22.33;9.03;;;0.70;84.60;;;;;;5031075;28;20038;-69
2020/12/04 02:59:02;;;;;;;28.93;14.33;;;0.70;84.60;;;;;;5031476;28;20041;-69
2020/12/04 03:01:28;;;;;;;29.87;12.90;;;0.70;84.60;;;;;;5012894;28;20038;-69
2020/12/04 03:03:54;;;;;;;31.07;13.40;;;0.70;84.70;;;;;;5030220;28;20113;-70
2020/12/04 03:06:19;;;;;;;28.03;10.93;;;0.70;84.60;;;;;;5030377;28;20039;-70
2020/12/04 03:08:45;;;;;;;34.73;16.17;;;0.70;84.60;;;;;;5030828;28;20554;-68
2020/12/04 03:11:11;;;;;;;30.57;13.93;;;0.60;84.50;;;;;;5030913;28;20037;-69
2020/12/04 03:13:36;;;;;;;28.97;13.23;;;0.60;84.50;;;;;;5029517;28;20064;-70
2020/12/04 03:16:02;;;;;;;30.73;10.17;;;0.60;84.50;;;;;;5029138;28;20030;-70
2020/12/04 03:18:28;;;;;;;33.37;14.90;;;0.60;84.50;;;;;;5030091;28;20033;-70
2020/12/04 03:20:54;;;;;;;28.33;13.20;;;0.60;84.60;;;;;;5030292;28;20076;-69
2020/12/04 03:23:19;;;;;;;20.80;9.73;;;0.60;84.50;;;;;;5028454;28;20379;-68
2020/12/04 03:25:45;;;;;;;23.73;10.67;;;0.60;84.60;;;;;;5029778;28;20041;-69
2020/12/04 03:28:11;;;;;;;23.27;9.83;;;0.60;84.50;;;;;;5030445;28;20601;-68
2020/12/04 03:30:36;;;;;;;23.33;9.23;;;0.60;84.60;;;;;;5030102;28;20091;-69
2020/12/04 03:33:02;;;;;;;29.00;13.57;;;0.60;84.50;;;;;;5029990;28;20082;-69
2020/12/04 03:35:28;;;;;;;31.43;13.37;;;0.60;84.40;;;;;;5028825;28;20033;-69
2020/12/04 03:37:53;;;;;;;33.23;15.07;;;0.60;84.50;;;;;;5030026;28;20090;-68
2020/12/04 03:40:19;;;;;;;28.60;13.27;;;0.60;84.40;;;;;;5030546;28;20057;-69
2020/12/04 03:42:45;;;;;;;29.87;13.33;;;0.60;84.40;;;;;;5029209;28;20402;-70
2020/12/04 03:45:10;;;;;;;25.30;12.47;;;0.60;84.30;;;;;;5030218;28;20048;-68
2020/12/04 03:47:39;;;;;;;20.90;8.67;;;0.60;84.30;;;;;;5029036;28;20049;-69
2020/12/04 03:50:06;;;;;;;27.67;11.37;;;0.50;84.20;;;;;;5028523;28;20046;-69
2020/12/04 03:52:31;;;;;;;32.70;14.60;;;0.60;84.30;;;;;;5029475;28;20403;-69
2020/12/04 03:54:57;;;;;;;27.03;12.83;;;0.50;84.30;;;;;;5030038;28;20045;-69
2020/12/04 03:57:23;;;;;;;30.37;13.53;;;0.50;84.30;;;;;;5030784;28;20077;-70
2020/12/04 03:59:48;;;;;;;30.63;13.73;;;0.50;84.30;;;;;;5030753;28;20048;-69
2020/12/04 04:02:14;;;;;;;32.00;14.33;;;0.50;84.30;;;;;;5029567;28;20041;-68
2020/12/04 04:04:40;;;;;;;27.00;13.53;;;0.50;84.30;;;;;;5029239;28;20045;-70
2020/12/04 04:07:05;;;;;;;32.53;13.67;;;0.50;84.30;;;;;;5028900;28;20132;-70
2020/12/04 04:09:31;;;;;;;28.33;12.17;;;0.50;84.20;;;;;;5030598;28;20040;-70
2020/12/04 04:11:57;;;;;;;24.43;11.53;;;0.50;84.20;;;;;;5028632;28;20037;-70
2020/12/04 04:14:23;;;;;;;24.63;12.50;;;0.50;84.20;;;;;;5028692;28;20530;-69
2020/12/04 04:16:48;;;;;;;25.30;11.13;;;0.50;84.10;;;;;;5030489;28;20116;-69
2020/12/04 04:19:14;;;;;;;28.73;12.13;;;0.50;84.60;;;;;;5028871;28;20560;-72
2020/12/04 04:21:40;;;;;;;29.53;13.77;;;0.50;84.10;;;;;;5028527;28;20034;-69
2020/12/04 04:24:07;;;;;;;25.93;10.10;;;0.50;84.10;;;;;;5030373;28;20030;-69
2020/12/04 04:26:32;;;;;;;22.03;9.17;;;0.50;84.10;;;;;;5029487;28;20121;-70
2020/12/04 04:28:58;;;;;;;30.33;14.30;;;0.50;84.10;;;;;;5028576;28;20121;-69
2020/12/04 04:31:25;;;;;;;26.93;13.57;;;0.50;84.60;;;;;;5031667;28;20459;-69
2020/12/04 04:33:51;;;;;;;29.27;13.73;;;0.50;84.10;;;;;;5033069;28;20113;-69
2020/12/04 04:36:16;;;;;;;32.90;14.43;;;0.50;84.10;;;;;;5033527;28;20113;-69
2020/12/04 04:38:42;;;;;;;30.47;13.80;;;0.50;84.10;;;;;;5033141;28;20483;-69
2020/12/04 04:41:08;;;;;;;26.97;11.40;;;0.50;84.10;;;;;;5033435;28;20033;-69
2020/12/04 04:43:34;;;;;;;23.60;10.83;;;0.40;84.10;;;;;;5032266;28;20080;-68
2020/12/04 04:46:14;;;;;;;23.80;11.33;;;0.40;84.10;;;;;;5033227;28;20069;-69
2020/12/04 04:48:47;;;;;;;29.30;13.77;;;0.50;84.30;;;;;;5033021;28;20037;-69
2020/12/04 04:51:14;;;;;;;21.50;8.97;;;0.50;84.20;;;;;;5033454;28;20042;-70
2020/12/04 04:53:43;;;;;;;31.27;13.47;;;0.50;84.30;;;;;;5031356;28;20034;-69
2020/12/04 04:56:09;;;;;;;22.43;10.27;;;0.50;84.30;;;;;;5033032;28;20386;-69
2020/12/04 04:58:35;;;;;;;28.13;13.07;;;0.50;84.20;;;;;;5032098;28;20056;-69
2020/12/04 05:01:01;;;;;;;18.73;7.30;;;0.50;84.20;;;;;;5035517;28;20041;-70
2020/12/04 05:03:26;;;;;;;27.63;12.67;;;0.50;84.10;;;;;;5041811;28;20029;-70
2020/12/04 05:05:52;;;;;;;24.17;11.67;;;0.50;84.10;;;;;;5041724;28;20180;-69
2020/12/04 05:08:22;;;;;;;26.60;12.27;;;0.50;84.10;;;;;;5020055;28;20037;-69
2020/12/04 05:11:05;;;;;;;28.50;13.37;;;0.50;84.10;;;;;;5031733;28;20051;-69
2020/12/04 05:13:31;;;;;;;26.97;10.87;;;0.60;84.10;;;;;;5034815;28;20040;-70
2020/12/04 05:15:56;;;;;;;27.40;12.53;;;0.60;84.10;;;;;;5053304;28;20044;-68
2020/12/04 05:18:22;;;;;;;28.97;12.77;;;0.60;84.00;;;;;;5052880;28;20041;-69
2020/12/04 05:20:53;;;;;;;29.33;13.80;;;0.60;84.00;;;;;;5051963;28;20052;-70
2020/12/04 05:23:19;;;;;;;28.30;13.35;;;0.60;84.00;;;;;;5050886;28;20040;-70
2020/12/04 05:25:47;;;;;;;30.73;14.90;;;0.70;84.20;;;;;;5052633;28;20044;-69
2020/12/04 05:28:17;;;;;;;27.07;13.47;;;0.70;84.10;;;;;;5052669;28;20049;-69
2020/12/04 05:30:46;;;;;;;29.97;13.80;;;0.80;84.00;;;;;;5031086;28;20097;-70
2020/12/04 05:33:12;;;;;;;29.60;12.53;;;0.80;83.90;;;;;;5031932;28;20125;-69
2020/12/04 05:35:39;;;;;;;23.17;10.80;;;0.80;83.80;;;;;;5030711;28;20033;-70
2020/12/04 05:38:17;;;;;;;24.67;11.30;;;0.80;83.80;;;;;;5024910;28;20037;-69
2020/12/04 05:40:46;;;;;;;27.70;12.40;;;0.80;83.60;;;;;;5016983;28;20081;-70
2020/12/04 05:43:13;;;;;;;25.23;12.27;;;0.90;83.60;;;;;;5013630;28;20041;-70
2020/12/04 05:45:39;;;;;;;23.37;10.17;;;0.80;83.50;;;;;;5020484;28;20045;-70
2020/12/04 05:48:15;;;;;;;29.00;13.27;;;0.80;83.50;;;;;;5021019;28;20037;-70
2020/12/04 05:50:42;;;;;;;28.43;13.80;;;0.90;83.50;;;;;;5025236;28;20049;-69
2020/12/04 05:53:09;;;;;;;28.77;11.67;;;0.80;83.30;;;;;;5021328;28;20041;-68
2020/12/04 05:55:36;;;;;;;30.43;13.73;;;0.90;83.30;;;;;;5020123;28;20080;-70
2020/12/04 05:58:07;;;;;;;21.77;9.40;;;0.90;83.30;;;;;;5015749;28;20038;-68
2020/12/04 06:00:33;;;;;;;31.57;12.53;;;0.80;83.20;;;;;;5019223;28;20042;-69
2020/12/04 06:03:01;;;;;;;26.97;11.97;;;0.80;83.10;;;;;;5021835;28;20037;-70
2020/12/04 06:05:27;;;;;;;25.97;10.73;;;0.80;83.20;;;;;;5016538;28;20076;-70
2020/12/04 06:08:06;;;;;;;30.33;14.97;;;0.80;83.30;;;;;;5017618;28;20071;-68
2020/12/04 06:10:34;;;;;;;33.30;15.63;;;0.80;83.30;;;;;;5017440;28;20041;-69
2020/12/04 06:13:00;;;;;;;31.43;15.63;;;0.80;83.50;;;;;;5021376;28;20495;-70
2020/12/04 06:15:31;;;;;;;32.53;15.37;;;0.80;84.10;;;;;;5012347;28;20084;-68
2020/12/04 06:18:02;;;;;;;20.35;8.52;;;0.80;83.60;;;;;;5011734;28;20053;-67
2020/12/04 06:20:29;;;;;;;31.63;14.87;;;0.90;83.60;;;;;;5011592;28;20121;-70
2020/12/04 06:23:09;;;;;;;32.13;14.80;;;0.80;83.70;;;;;;5009827;28;20557;-69
2020/12/04 06:25:58;;;;;;;34.22;15.50;;;0.80;83.80;;;;;;5011147;28;20056;-69
2020/12/04 06:28:29;;;;;;;31.77;15.00;;;0.80;84.40;;;;;;5011005;28;20045;-69
2020/12/04 06:30:59;;;;;;;36.13;15.47;;;0.80;84.00;;;;;;5011833;28;20038;-70
2020/12/04 06:33:41;;;;;;;32.10;16.15;;;0.80;84.10;;;;;;5009342;28;20436;-72
2020/12/04 06:36:13;;;;;;;32.90;14.33;;;0.80;84.20;;;;;;5011510;28;20042;-71
2020/12/04 06:38:41;;;;;;;29.03;11.73;;;0.80;84.40;;;;;;5009951;28;20037;-71
2020/12/04 06:41:27;;;;;;;28.23;12.10;;;0.80;84.40;;;;;;5011529;28;20096;-71
2020/12/04 06:43:58;;;;;;;29.73;12.50;;;0.80;84.30;;;;;;5010435;28;20048;-71
2020/12/04 06:46:30;;;;;;;32.97;14.73;;;0.90;84.40;;;;;;5011425;28;20033;-71
2020/12/04 06:51:59;;;;;;;37.30;16.10;;;0.90;84.40;;;;;;5009124;28;20644;-70
2020/12/04 06:54:27;;;;;;;24.87;9.30;;;0.90;84.40;;;;;;5010296;28;20443;-71
2020/12/04 06:56:54;;;;;;;29.93;11.83;;;0.90;84.30;;;;;;5009962;28;20279;-71
2020/12/04 06:59:34;;;;;;;35.13;15.80;;;0.90;84.30;;;;;;5011790;28;20034;-72
2020/12/04 07:02:01;;;;;;;36.80;17.90;;;0.90;84.30;;;;;;5010432;28;20050;-71
2020/12/04 07:04:31;;;;;;;36.60;16.53;;;0.90;84.80;;;;;;5011620;28;20065;-71
2020/12/04 07:07:01;;;;;;;35.67;16.13;;;0.90;84.90;;;;;;5011217;28;20034;-71
2020/12/04 07:09:27;;;;;;;35.03;16.30;;;0.90;84.40;;;;;;5011586;28;20265;-71
2020/12/04 07:11:55;;;;;;;27.17;10.97;;;0.90;84.50;;;;;;5010777;28;20045;-71
2020/12/04 07:14:22;;;;;;;36.00;15.93;;;0.90;84.60;;;;;;5011267;28;20034;-70
2020/12/04 07:16:48;;;;;;;37.57;17.97;;;0.90;84.60;;;;;;5011437;28;20573;-70
2020/12/04 07:19:14;;;;;;;35.20;14.63;;;0.90;84.60;;;;;;5010873;28;20177;-71
2020/12/04 07:21:41;;;;;;;33.27;15.37;;;0.90;84.80;;;;;;5010600;28;20121;-71
2020/12/04 07:24:07;;;;;;;27.27;12.60;;;0.90;84.70;;;;;;5008685;28;20049;-71
2020/12/04 07:26:34;;;;;;;36.10;16.33;;;0.90;84.80;;;;;;5010601;28;20153;-71
2020/12/04 07:28:59;;;;;;;35.50;16.30;;;0.90;84.80;;;;;;5010639;28;20750;-71
2020/12/04 07:31:25;;;;;;;38.70;16.70;;;0.90;85.00;;;;;;5009995;28;20045;-72
2020/12/04 07:33:56;;;;;;;38.33;16.50;;;0.90;84.90;;;;;;5009842;28;20084;-71
2020/12/04 07:36:22;;;;;;;39.50;18.27;;;0.90;85.10;;;;;;5008804;28;20121;-71
2020/12/04 07:38:53;;;;;;;40.37;19.27;;;0.90;85.20;;;;;;5009184;28;20030;-71
2020/12/04 07:41:39;;;;;;;37.37;15.57;;;0.90;85.30;;;;;;5008919;28;20037;-71
2020/12/04 07:44:10;;;;;;;38.70;18.20;;;0.80;85.40;;;;;;5010362;28;20044;-71
2020/12/04 07:46:36;;;;;;;36.53;14.53;;;0.90;85.50;;;;;;5010161;28;20034;-71
2020/12/04 07:49:13;;;;;;;28.30;12.50;;;0.90;85.50;;;;;;5009359;28;20394;-69
2020/12/04 07:51:41;;;;;;;16.80;6.17;;;0.90;85.50;;;;;;5009825;28;20064;-71
2020/12/04 07:54:27;;;;;;;38.83;17.97;;;0.90;85.60;;;;;;5010483;28;20030;-71
2020/12/04 07:56:55;;;;;;;31.70;14.03;;;0.90;85.50;;;;;;5009929;28;20113;-71
2020/12/04 07:59:28;;;;;;;29.37;12.90;;;0.90;85.60;;;;;;5009175;28;20406;-71
2020/12/04 08:01:54;;;;;;;34.43;15.87;;;0.90;85.60;;;;;;5008475;28;20042;-71
2020/12/04 08:04:20;;;;;;;35.13;15.60;;;0.90;85.60;;;;;;5009602;28;20046;-71
2020/12/04 08:06:47;;;;;;;32.00;13.37;;;1.00;85.70;;;;;;5013342;28;20043;-71
2020/12/04 08:09:18;;;;;;;36.27;18.13;;;1.00;85.60;;;;;;5014866;28;20510;-71
2020/12/04 08:11:54;;;;;;;;;;;1.00;85.60;;;;;;5013028;28;20398;-70
2020/12/04 08:14:26;;;;;;;28.87;11.17;;;1.00;85.50;;;;;;5013123;28;19913;-71
2020/12/04 08:16:59;;;;;;;39.23;17.73;;;1.00;85.60;;;;;;5014227;28;20073;-71
2020/12/04 08:19:29;;;;;;;39.40;17.50;;;1.00;85.70;;;;;;5014712;28;20043;-71
2020/12/04 08:22:08;;;;;;;28.00;10.95;;;1.00;85.90;;;;;;5013580;28;20033;-71
2020/12/04 08:24:39;;;;;;;39.03;18.10;;;1.00;85.80;;;;;;5013851;28;20414;-71
2020/12/04 08:27:06;;;;;;;38.00;17.17;;;1.10;85.80;;;;;;5013179;28;20057;-71
2020/12/04 08:29:33;;;;;;;37.23;14.77;;;1.10;85.80;;;;;;5020807;28;20038;-71
2020/12/04 08:32:08;;;;;;;34.60;15.33;;;1.10;85.80;;;;;;5019784;28;20045;-71
2020/12/04 08:34:36;;;;;;;29.70;11.80;;;1.10;85.70;;;;;;5019443;28;20045;-71
2020/12/04 08:37:04;;;;;;;36.20;17.27;;;1.20;85.70;;;;;;5018226;28;20099;-71
2020/12/04 08:39:48;;;;;;;33.17;16.30;;;1.20;85.70;;;;;;5022632;28;20554;-71
2020/12/04 08:42:20;;;;;;;30.20;14.00;;;1.20;85.70;;;;;;5020541;28;20044;-71
2020/12/04 08:45:09;;;;;;;34.67;15.47;;;1.20;85.60;;;;;;5011288;28;20131;-71
2020/12/04 08:47:40;;;;;;;26.87;12.10;;;1.20;85.60;;;;;;5011910;28;20045;-70
2020/12/04 08:50:07;;;;;;;35.13;16.37;;;1.20;85.50;;;;;;5010457;28;20048;-71
2020/12/04 08:52:39;;;;;;;33.27;14.73;;;1.20;85.50;;;;;;5011061;28;20521;-71
2020/12/04 08:55:06;;;;;;;32.57;14.93;;;1.30;85.50;;;;;;5012586;28;20517;-71
2020/12/04 08:57:32;;;;;;;28.60;13.53;;;1.30;85.50;;;;;;5012441;28;20033;-71
2020/12/04 08:59:58;;;;;;;30.53;15.23;;;1.30;85.50;;;;;;5012047;28;20036;-71
2020/12/04 09:02:24;;;;;;;31.27;15.13;;;1.40;85.40;;;;;;4994247;28;20506;-72
2020/12/04 09:04:50;;;;;;;31.90;15.10;;;1.40;85.20;;;;;;5011615;28;20518;-74
2020/12/04 09:07:15;;;;;;;33.97;16.30;;;1.40;85.10;;;;;;5012887;28;20041;-73
2020/12/04 09:09:41;;;;;;;36.47;17.37;;;1.50;85.00;;;;;;5012896;28;20129;-73
2020/12/04 09:12:07;;;;;;;32.53;14.43;;;1.50;85.50;;;;;;5012464;28;20116;-73
2020/12/04 09:14:33;;;;;;;32.10;14.50;;;1.50;84.90;;;;;;5011670;28;20077;-75
2020/12/04 09:16:58;;;;;;;34.13;16.97;;;1.50;84.70;;;;;;5012056;28;20538;-74
2020/12/04 09:19:24;;;;;;;34.27;16.67;;;1.50;84.60;;;;;;5011300;28;20495;-74
2020/12/04 09:21:50;;;;;;;35.03;15.87;;;1.50;84.60;;;;;;5010335;28;20041;-74
2020/12/04 09:24:16;;;;;;;29.90;15.30;;;1.50;84.70;;;;;;4994967;28;20065;-74
2020/12/04 09:26:41;;;;;;;33.70;14.97;;;1.60;84.60;;;;;;5010825;28;20038;-74
2020/12/04 09:29:07;;;;;;;34.10;15.73;;;1.60;84.70;;;;;;5011209;28;20046;-74
2020/12/04 09:31:33;;;;;;;34.07;16.03;;;1.60;84.80;;;;;;5010098;28;20547;-74
2020/12/04 09:33:59;;;;;;;32.03;15.07;;;1.70;84.70;;;;;;5011406;28;20049;-74
2020/12/04 09:36:24;;;;;;;25.77;11.43;;;1.70;84.50;;;;;;5010938;28;20033;-74
2020/12/04 09:38:50;;;;;;;26.37;12.43;;;1.70;84.40;;;;;;5010927;28;20038;-74
2020/12/04 09:41:16;;;;;;;30.97;14.77;;;1.70;84.30;;;;;;5011449;28;20459;-74
2020/12/04 09:43:42;;;;;;;29.27;14.27;;;1.70;84.20;;;;;;5010994;28;20888;-73
2020/12/04 09:46:07;;;;;;;37.67;17.83;;;1.70;84.20;;;;;;5009656;28;20388;-74
2020/12/04 09:48:34;;;;;;;37.27;18.37;;;1.70;84.30;;;;;;5010777;28;20034;-74
2020/12/04 09:51:00;;;;;;;34.57;16.00;;;1.80;84.40;;;;;;5010969;28;20038;-74
2020/12/04 09:53:26;;;;;;;26.83;12.73;;;1.80;84.30;;;;;;5009970;28;20042;-74
2020/12/04 09:55:52;;;;;;;28.53;12.57;;;1.90;84.20;;;;;;5012435;28;20129;-74
2020/12/04 09:58:17;;;;;;;31.63;13.87;;;1.90;84.10;;;;;;5010678;28;20045;-74
2020/12/04 10:00:43;;;;;;;32.47;15.13;;;1.90;84.00;;;;;;5013195;28;20041;-73
2020/12/04 10:03:09;;;;;;;31.17;14.77;;;1.90;84.00;;;;;;5011616;28;20494;-75
2020/12/04 10:05:35;;;;;;;31.03;14.77;;;1.90;84.00;;;;;;5011775;28;20077;-75
2020/12/04 10:08:01;;;;;;;34.03;16.57;;;1.90;84.00;;;;;;5011134;28;20557;-74
2020/12/04 10:10:26;;;;;;;33.47;14.90;;;2.00;84.00;;;;;;5011947;28;20037;-74
2020/12/04 10:12:52;;;;;;;33.37;15.97;;;2.10;84.70;;;;;;5011413;28;20047;-74
2020/12/04 10:15:18;;;;;;;34.23;15.37;;;2.10;84.00;;;;;;5012212;28;20038;-74
2020/12/04 10:17:44;;;;;;;34.97;17.73;;;2.10;83.80;;;;;;5010429;28;20044;-74
2020/12/04 10:20:10;;;;;;;33.37;16.20;;;2.10;83.70;;;;;;5011686;28;20426;-75
2020/12/04 10:22:35;;;;;;;30.10;14.73;;;2.20;83.60;;;;;;5009075;28;20041;-74
2020/12/04 10:25:01;;;;;;;29.73;13.90;;;2.20;83.70;;;;;;5011340;28;20043;-73
2020/12/04 10:27:27;;;;;;;36.57;16.83;;;2.20;83.50;;;;;;5010763;28;20042;-73
2020/12/04 10:29:53;;;;;;;31.83;14.97;;;2.20;83.40;;;;;;4993356;28;20532;-74
2020/12/04 10:32:20;;;;;;;34.33;15.90;;;2.20;83.30;;;;;;5010696;28;20042;-73
2020/12/04 10:34:47;;;;;;;32.47;15.90;;;2.20;83.30;;;;;;5010009;28;20040;-74
2020/12/04 10:37:13;;;;;;;29.40;13.37;;;2.30;83.50;;;;;;5009534;28;20026;-74
2020/12/04 10:39:38;;;;;;;26.50;10.97;;;2.30;83.50;;;;;;5010064;28;20034;-75
2020/12/04 10:42:04;;;;;;;31.10;16.17;;;2.30;83.50;;;;;;5010039;28;20040;-73
2020/12/04 10:44:32;;;;;;;28.13;12.00;;;2.30;83.30;;;;;;5011040;28;20483;-74
2020/12/04 10:46:59;;;;;;;32.63;17.70;;;2.40;83.40;;;;;;5010534;28;20030;-73
2020/12/04 10:49:25;;;;;;;35.83;16.17;;;2.40;83.10;;;;;;5010849;28;20049;-74
2020/12/04 10:51:56;;;;;;;33.43;15.97;;;2.40;83.00;;;;;;5008856;28;20077;-74
2020/12/04 10:54:22;;;;;;;28.13;13.43;;;2.40;83.00;;;;;;5010312;28;20394;-74
2020/12/04 10:56:48;;;;;;;34.33;17.03;;;2.40;82.90;;;;;;5010809;28;20129;-74
2020/12/04 10:59:13;;;;;;;32.87;16.67;;;2.40;82.90;;;;;;5010327;28;20129;-74
2020/12/04 11:01:46;;;;;;;34.50;17.00;;;2.30;82.80;;;;;;5010107;28;20046;-74
2020/12/04 11:06:56;;;;;;;33.60;15.73;;;2.40;83.00;;;;;;5008445;28;20030;-73
2020/12/04 11:09:23;;;;;;;34.53;16.93;;;2.40;83.70;;;;;;5008476;28;20068;-73
2020/12/04 11:11:48;;;;;;;32.20;15.47;;;2.50;83.30;;;;;;5009656;28;20026;-73
2020/12/04 11:14:14;;;;;;;31.63;15.37;;;2.60;83.30;;;;;;5009000;28;20499;-74
2020/12/04 11:16:41;;;;;;;37.03;17.60;;;2.60;83.00;;;;;;5010084;28;20037;-73
2020/12/04 11:19:08;;;;;;;34.80;16.33;;;2.70;82.90;;;;;;5009239;28;20049;-74
2020/12/04 11:21:33;;;;;;;33.43;16.10;;;2.70;82.90;;;;;;5008282;28;20033;-72
2020/12/04 11:23:59;;;;;;;32.60;15.57;;;2.80;82.90;;;;;;5009301;28;20036;-72
2020/12/04 11:26:25;;;;;;;35.10;16.00;;;2.90;82.90;;;;;;5008627;28;20049;-72
2020/12/04 11:28:51;;;;;;;34.27;15.27;;;3.00;82.70;;;;;;5008867;28;20697;-72
2020/12/04 11:31:16;;;;;;;32.03;15.27;;;3.00;82.40;;;;;;5010538;28;20042;-72
2020/12/04 11:33:42;;;;;;;31.90;15.47;;;3.00;82.10;;;;;;5008386;28;20049;-72
2020/12/04 11:36:08;;;;;;;31.37;16.20;;;3.00;82.10;;;;;;4991455;28;20033;-72
2020/12/04 11:38:33;;;;;;;29.43;13.93;;;3.00;82.10;;;;;;5008340;28;20137;-72
2020/12/04 11:40:59;;;;;;;32.87;15.00;;;3.10;82.20;;;;;;5007580;28;20041;-72
2020/12/04 11:43:25;;;;;;;30.40;14.77;;;3.10;82.30;;;;;;5006625;28;20057;-71
2020/12/04 11:45:51;;;;;;;33.13;16.23;;;3.10;82.30;;;;;;5008257;28;20165;-72
2020/12/04 11:48:16;;;;;;;30.70;15.83;;;3.20;82.30;;;;;;5007286;28;20487;-71
2020/12/04 11:50:42;;;;;;;34.30;16.77;;;3.40;82.50;;;;;;5007123;28;20197;-72
2020/12/04 11:53:08;;;;;;;32.07;16.97;;;3.50;82.60;;;;;;5009125;28;20503;-72
2020/12/04 11:55:34;;;;;;;32.93;16.53;;;3.70;82.10;;;;;;5010372;28;20095;-71
2020/12/04 11:57:59;;;;;;;32.43;16.80;;;3.90;81.80;;;;;;5010019;28;20392;-72
2020/12/04 12:00:25;;;;;;;28.73;14.53;;;4.10;81.20;;;;;;5010308;28;20121;-71
2020/12/04 12:02:51;;;;;;;30.83;15.73;;;4.30;80.50;;;;;;4992149;28;20081;-72
2020/12/04 12:05:17;;;;;;;31.20;15.03;;;4.50;79.50;;;;;;5009647;28;20107;-71
2020/12/04 12:07:42;;;;;;;32.60;15.30;;;4.50;79.20;;;;;;5008982;28;20518;-72
2020/12/04 12:10:09;;;;;;;34.03;16.37;;;4.50;78.80;;;;;;5008686;28;20037;-72
2020/12/04 12:12:35;;;;;;;31.80;16.27;;;4.40;78.90;;;;;;5009396;28;20064;-72
2020/12/04 12:15:01;;;;;;;30.03;15.83;;;4.40;78.80;;;;;;5010091;28;20452;-72
2020/12/04 12:17:26;;;;;;;30.23;14.70;;;4.30;78.80;;;;;;5009740;28;20060;-72
2020/12/04 12:19:52;;;;;;;31.73;15.60;;;4.20;78.70;;;;;;5010095;28;20048;-72
2020/12/04 12:22:18;;;;;;;30.53;16.23;;;4.10;78.80;;;;;;5008894;28;20045;-72
2020/12/04 12:24:45;;;;;;;29.93;14.80;;;4.00;79.00;;;;;;5009679;28;20037;-72
2020/12/04 12:27:11;;;;;;;32.33;16.40;;;3.90;79.10;;;;;;5009846;28;20056;-70
2020/12/04 12:29:37;;;;;;;34.17;14.77;;;3.80;79.40;;;;;;5009897;28;20129;-75
2020/12/04 12:32:06;;;;;;;33.50;16.37;;;3.80;79.80;;;;;;5009565;28;20126;-75
2020/12/04 12:37:17;;;;;;;33.07;16.53;;;4.00;80.00;;;;;;5010171;28;20026;-74
2020/12/04 12:39:43;;;;;;;31.97;14.47;;;4.00;80.20;;;;;;5008333;28;20064;-74
2020/12/04 12:42:18;;;;;;;28.93;14.90;;;4.20;79.60;;;;;;5009417;28;20398;-75
2020/12/04 12:44:44;;;;;;;31.33;15.27;;;4.20;79.40;;;;;;5009858;28;20038;-74
2020/12/04 12:47:11;;;;;;;31.30;15.60;;;4.30;79.30;;;;;;5010806;28;20109;-76